Terminal Aerodrome Forecast
Issued by NWS

Home | Current Version | Previous Version | Text Only | Print | Product List | Glossary On
Versions: 1 2 3 4 5 6 7 8 9 10 11 12 13 14 15 16
000
FTUS45 KABQ 260500
TAFFMN
TAF
KFMN 260531Z 2606/2706 VRB05KT P6SM BKN110
     FM261600 28011KT P6SM SCT140
     FM270200 32014KT P6SM VCSH BKN110=

USA.gov is the U.S. government's official web portal to all federal, state and local government web resources and services.